createdAt,value
2019-04-16T00:00:51.617Z,3.19
2019-04-16T00:03:27.806Z,3.17
2019-04-16T00:06:22.110Z,3.13
2019-04-16T00:09:00.986Z,3.13
2019-04-16T00:11:41.454Z,3.09
2019-04-16T00:14:22.723Z,3.07
2019-04-16T00:16:52.243Z,3.05
2019-04-16T00:19:22.043Z,3.01
2019-04-16T00:22:17.448Z,3.01
2019-04-16T00:24:50.360Z,2.99
2019-04-16T00:27:20.333Z,2.99
2019-04-16T00:29:49.562Z,2.96
2019-04-16T00:32:31.129Z,2.94
2019-04-16T00:35:02.762Z,2.94
2019-04-16T00:37:32.890Z,2.91
2019-04-16T00:40:03.307Z,2.87
2019-04-16T00:42:33.059Z,2.85
2019-04-16T00:45:02.397Z,2.81
2019-04-16T00:47:31.572Z,2.76
2019-04-16T00:50:00.872Z,2.74
2019-04-16T00:52:30.642Z,2.71
2019-04-16T00:55:00.214Z,2.68
2019-04-16T00:57:30.040Z,2.69
2019-04-16T01:00:01.872Z,2.66
2019-04-16T01:02:31.420Z,2.61
2019-04-16T01:05:01.160Z,2.60
2019-04-16T01:07:30.299Z,2.57
2019-04-16T01:09:59.871Z,2.54
2019-04-16T01:12:29.284Z,2.51
2019-04-16T01:15:00.560Z,2.49
2019-04-16T01:17:29.500Z,2.47
2019-04-16T01:19:59.091Z,2.47
2019-04-16T01:22:28.875Z,2.44
2019-04-16T01:24:58.080Z,2.40
2019-04-16T01:27:37.598Z,2.37
2019-04-16T01:30:20.548Z,2.36
2019-04-16T01:33:14.450Z,2.34
2019-04-16T01:36:03.656Z,2.34
2019-04-16T01:38:41.602Z,2.32
2019-04-16T01:41:16.105Z,2.29
2019-04-16T01:43:45.429Z,2.27
2019-04-16T01:46:15.266Z,2.25
2019-04-16T01:48:45.830Z,2.28
2019-04-16T01:51:16.254Z,2.24
2019-04-16T01:53:45.893Z,2.22
2019-04-16T01:56:15.585Z,2.20
2019-04-16T01:58:45.447Z,2.20
2019-04-16T02:01:15.251Z,2.18
2019-04-16T02:03:48.584Z,2.18
2019-04-16T02:06:16.040Z,2.16
2019-04-16T02:08:45.407Z,2.15
2019-04-16T02:25:51.466Z,2.13
2019-04-16T02:29:15.550Z,2.13
2019-04-16T02:31:38.420Z,2.11
2019-04-16T02:34:07.683Z,2.11
2019-04-16T02:36:37.085Z,2.09
2019-04-16T02:39:09.088Z,2.10
2019-04-16T02:41:38.244Z,2.10
2019-04-16T02:44:14.615Z,2.12
2019-04-16T02:46:38.795Z,2.14
2019-04-16T02:49:08.042Z,2.12
2019-04-16T02:51:51.212Z,2.13
2019-04-16T02:54:45.887Z,2.13
2019-04-16T02:57:30.370Z,2.13
2019-04-16T03:00:03.644Z,2.12
2019-04-16T03:02:46.215Z,2.11
2019-04-16T03:05:35.301Z,2.10
2019-04-16T03:08:07.679Z,2.10
2019-04-16T03:10:37.179Z,2.11
2019-04-16T03:13:06.717Z,2.12
2019-04-16T03:16:09.336Z,2.12
2019-04-16T03:18:46.976Z,2.10
2019-04-16T03:21:16.016Z,2.06
2019-04-16T03:23:45.817Z,2.05
2019-04-16T03:26:17.567Z,2.06
2019-04-16T03:28:46.735Z,2.04
2019-04-16T03:31:22.220Z,2.03
2019-04-16T03:33:50.584Z,2.00
2019-04-16T03:36:19.022Z,2.00
2019-04-16T03:38:48.621Z,1.98
2019-04-16T03:41:18.763Z,1.98
2019-04-16T03:43:48.273Z,1.97
2019-04-16T03:46:17.806Z,1.96
2019-04-16T03:48:47.444Z,1.96
2019-04-16T03:51:16.672Z,1.96
2019-04-16T03:53:49.602Z,1.95
2019-04-16T03:56:19.220Z,1.97
2019-04-16T03:58:48.928Z,1.98
2019-04-16T04:01:18.541Z,1.98
2019-04-16T04:03:48.341Z,1.97
2019-04-16T04:06:22.263Z,1.96
2019-04-16T04:08:53.248Z,1.97
2019-04-16T04:11:24.179Z,1.96
2019-04-16T04:13:53.792Z,1.97
2019-04-16T04:16:23.182Z,1.82
2019-04-16T04:18:52.764Z,1.98
2019-04-16T04:21:22.742Z,1.98
2019-04-16T04:23:52.319Z,1.97
2019-04-16T04:26:21.499Z,2.01
2019-04-16T04:28:51.611Z,2.01
2019-04-16T04:31:21.789Z,1.98
2019-04-16T04:33:50.722Z,1.98
2019-04-16T04:36:23.035Z,1.99
2019-04-16T04:38:51.262Z,2.00
2019-04-16T04:41:23.424Z,2.02
2019-04-16T04:43:51.355Z,2.03
2019-04-16T04:46:21.930Z,2.04
2019-04-16T04:48:55.016Z,2.06
2019-04-16T04:51:22.814Z,2.08
2019-04-16T04:53:52.038Z,2.09
2019-04-16T04:56:21.574Z,2.10
2019-04-16T04:58:50.963Z,2.14
2019-04-16T05:01:23.530Z,2.16
2019-04-16T05:04:27.021Z,2.20
2019-04-16T05:07:05.689Z,2.22
2019-04-16T05:09:36.490Z,2.27
2019-04-16T05:12:08.087Z,2.33
2019-04-16T05:14:40.031Z,2.38
2019-04-16T05:17:09.074Z,2.43
2019-04-16T05:19:38.483Z,2.49
2019-04-16T05:22:07.755Z,2.55
2019-04-16T05:24:37.740Z,2.63
2019-04-16T05:27:09.425Z,2.72
2019-04-16T05:29:38.940Z,2.82
2019-04-16T05:32:11.137Z,2.94
2019-04-16T05:34:40.619Z,3.02
2019-04-16T05:37:09.565Z,3.20
2019-04-16T05:39:39.526Z,3.32
2019-04-16T05:46:18.699Z,3.60
2019-04-16T05:48:47.681Z,3.77
2019-04-16T05:51:17.175Z,3.89
2019-04-16T05:53:51.139Z,3.94
2019-04-16T05:56:52.382Z,4.02
2019-04-16T06:02:50.898Z,4.20
2019-04-16T06:05:26.766Z,4.37
2019-04-16T06:07:58.463Z,4.55
2019-04-16T06:10:29.287Z,4.61
2019-04-16T06:16:43.616Z,4.64
2019-04-16T06:19:46.207Z,4.68
2019-04-16T06:22:46.163Z,4.87
2019-04-16T06:25:53.491Z,5.06
2019-04-16T06:28:41.177Z,5.17
2019-04-16T06:31:50.823Z,4.92
2019-04-16T06:35:11.766Z,5.04
2019-04-16T06:37:45.764Z,4.44
2019-04-16T06:41:42.136Z,5.48
2019-04-16T06:44:12.812Z,5.75
2019-04-16T06:46:51.993Z,5.93
2019-04-16T06:49:39.506Z,6.16
2019-04-16T06:52:20.335Z,6.21
2019-04-16T06:54:57.192Z,6.23
2019-04-16T06:58:03.938Z,6.24
2019-04-16T07:00:55.003Z,6.19
2019-04-16T07:03:42.200Z,6.18
2019-04-16T07:06:35.949Z,6.06
2019-04-16T07:09:11.754Z,6.07
2019-04-16T07:11:53.649Z,6.40
2019-04-16T07:14:16.799Z,6.82
2019-04-16T07:16:46.737Z,7.16
2019-04-16T07:19:17.378Z,7.25
2019-04-16T07:21:49.650Z,7.36
2019-04-16T07:24:22.662Z,7.59
2019-04-16T07:26:51.932Z,7.58
2019-04-16T07:29:33.468Z,7.54
2019-04-16T07:32:26.194Z,7.53
2019-04-16T07:35:33.404Z,7.61
2019-04-16T07:38:23.159Z,7.95
2019-04-16T07:41:20.755Z,8.19
2019-04-16T07:44:21.502Z,8.02
2019-04-16T07:47:09.619Z,7.69
2019-04-16T07:49:44.801Z,7.74
2019-04-16T07:52:25.134Z,7.87
2019-04-16T07:55:12.061Z,8.04
2019-04-16T07:57:41.819Z,8.03
2019-04-16T08:00:12.994Z,8.14
2019-04-16T08:02:42.854Z,8.30
2019-04-16T08:05:12.559Z,8.49
2019-04-16T08:07:42.744Z,8.59
2019-04-16T08:10:12.634Z,8.74
2019-04-16T08:12:47.070Z,8.89
2019-04-16T08:15:17.251Z,9.16
2019-04-16T08:17:49.335Z,9.16
2019-04-16T08:20:21.383Z,9.22
2019-04-16T08:22:53.322Z,9.57
2019-04-16T08:25:33.514Z,9.95
2019-04-16T08:27:59.705Z,10.17
2019-04-16T08:30:34.107Z,9.89
2019-04-16T08:33:02.291Z,9.73
2019-04-16T08:35:31.946Z,9.58
2019-04-16T08:38:01.537Z,9.56
2019-04-16T08:40:31.335Z,9.75
2019-04-16T08:43:00.648Z,10.26
2019-04-16T08:45:30.494Z,10.36
2019-04-16T08:48:00.217Z,10.44
2019-04-16T08:50:30.517Z,10.63
2019-04-16T08:53:01.003Z,10.66
2019-04-16T08:55:30.837Z,10.71
2019-04-16T08:58:05.893Z,10.75
2019-04-16T09:00:34.506Z,10.93
2019-04-16T09:03:06.266Z,10.89
2019-04-16T09:05:41.198Z,10.54
2019-04-16T09:08:22.661Z,10.87
2019-04-16T09:10:52.090Z,10.89
2019-04-16T09:13:30.670Z,10.78
2019-04-16T09:16:10.369Z,10.82
2019-04-16T09:18:56.033Z,11.06
2019-04-16T09:21:27.954Z,11.40
2019-04-16T09:24:15.814Z,11.05
2019-04-16T09:26:52.686Z,11.10
2019-04-16T09:29:48.469Z,11.65
2019-04-16T09:32:39.478Z,12.12
2019-04-16T09:35:40.715Z,11.50
2019-04-16T09:51:06.668Z,12.15
2019-04-16T09:52:46.395Z,12.77
2019-04-16T09:55:18.932Z,13.00
2019-04-16T09:58:13.174Z,12.90
2019-04-16T10:00:27.368Z,12.82
2019-04-16T10:03:22.608Z,12.73
2019-04-16T10:05:51.597Z,13.03
2019-04-16T10:08:20.693Z,13.40
2019-04-16T10:10:49.884Z,13.59
2019-04-16T10:13:30.113Z,13.47
2019-04-16T10:15:50.229Z,13.35
2019-04-16T10:18:19.271Z,13.93
2019-04-16T10:20:48.760Z,13.77
2019-04-16T10:23:24.817Z,13.60
2019-04-16T10:25:54.384Z,13.61
2019-04-16T10:28:26.956Z,13.82
2019-04-16T10:30:57.444Z,14.29
2019-04-16T10:33:27.277Z,13.95
2019-04-16T10:36:01.061Z,13.78
2019-04-16T10:39:04.288Z,13.52
2019-04-16T10:41:41.037Z,13.19
2019-04-16T10:44:19.598Z,13.24
2019-04-16T10:47:23.116Z,13.75
2019-04-16T10:50:04.851Z,13.62
2019-04-16T10:53:08.652Z,13.81
2019-04-16T10:56:04.680Z,14.13
2019-04-16T10:58:51.743Z,14.64
2019-04-16T11:01:31.329Z,14.67
2019-04-16T11:04:13.012Z,14.05
2019-04-16T11:06:43.970Z,14.01
2019-04-16T11:09:12.984Z,15.05
2019-04-16T11:11:42.060Z,15.02
2019-04-16T11:14:11.263Z,14.91
2019-04-16T11:16:42.665Z,15.24
2019-04-16T11:19:12.104Z,15.50
2019-04-16T11:21:41.231Z,14.41
2019-04-16T11:24:10.164Z,14.44
2019-04-16T11:26:39.192Z,14.99
2019-04-16T11:29:09.709Z,14.84
2019-04-16T11:31:39.115Z,14.65
2019-04-16T11:34:11.571Z,15.30
2019-04-16T11:36:40.746Z,15.19
2019-04-16T11:39:11.045Z,14.79
2019-04-16T11:41:40.266Z,14.98
2019-04-16T11:44:16.169Z,15.17
2019-04-16T11:46:43.123Z,15.06
2019-04-16T11:49:12.455Z,14.80
2019-04-16T11:51:41.676Z,15.00
2019-04-16T11:54:17.899Z,14.71
2019-04-16T11:56:47.103Z,15.10
2019-04-16T11:59:16.812Z,15.47
2019-04-16T12:02:06.018Z,15.81
2019-04-16T12:05:03.696Z,15.69
2019-04-16T12:07:53.122Z,15.06
2019-04-16T12:10:40.483Z,15.24
2019-04-16T12:13:22.349Z,15.67
2019-04-16T12:16:13.154Z,15.01
2019-04-16T12:19:00.305Z,14.74
2019-04-16T12:21:43.524Z,14.64
2019-04-16T12:24:34.276Z,14.78
2019-04-16T12:27:34.410Z,14.17
2019-04-16T12:30:21.065Z,14.00
2019-04-16T12:33:07.432Z,13.86
2019-04-16T12:35:40.998Z,13.63
2019-04-16T12:38:18.692Z,13.35
2019-04-16T12:41:10.655Z,13.13
2019-04-16T12:43:51.781Z,12.83
2019-04-16T12:46:30.065Z,12.64
2019-04-16T12:49:17.286Z,12.44
2019-04-16T12:51:51.711Z,12.48
2019-04-16T12:54:41.307Z,12.50
2019-04-16T12:57:32.410Z,12.46
2019-04-16T13:00:13.248Z,12.47
2019-04-16T13:03:10.459Z,12.45
2019-04-16T13:05:45.167Z,12.52
2019-04-16T13:08:33.540Z,12.38
2019-04-16T13:11:35.136Z,12.45
2019-04-16T13:14:24.138Z,12.58
2019-04-16T13:17:05.469Z,12.59
2019-04-16T13:19:38.834Z,12.44
2019-04-16T13:22:10.756Z,12.37
2019-04-16T13:24:48.548Z,12.51
2019-04-16T13:27:23.471Z,12.48
2019-04-16T13:29:52.867Z,12.55
2019-04-16T13:32:21.722Z,12.48
2019-04-16T13:34:50.951Z,12.39
2019-04-16T13:37:20.246Z,12.41
2019-04-16T13:40:07.296Z,12.39
2019-04-16T13:42:36.588Z,12.52
2019-04-16T13:45:25.715Z,12.61
2019-04-16T13:47:55.904Z,12.57
2019-04-16T13:50:28.037Z,12.47
2019-04-16T13:53:05.542Z,12.52
2019-04-16T13:55:53.957Z,12.54
2019-04-16T13:58:48.553Z,12.58
2019-04-16T14:01:21.181Z,12.59
2019-04-16T14:03:50.006Z,12.66
2019-04-16T14:06:19.046Z,12.66
2019-04-16T14:08:48.148Z,12.70
2019-04-16T14:11:19.688Z,12.67
2019-04-16T14:13:50.243Z,12.65
2019-04-16T14:16:21.745Z,12.60
2019-04-16T14:18:51.275Z,12.59
2019-04-16T14:21:20.817Z,12.60
2019-04-16T14:23:50.442Z,12.59
2019-04-16T14:26:19.448Z,12.61
2019-04-16T14:28:52.486Z,12.58
2019-04-16T14:31:21.330Z,12.56
2019-04-16T14:34:12.345Z,12.56
2019-04-16T14:36:41.512Z,12.66
2019-04-16T14:39:21.075Z,12.69
2019-04-16T14:41:50.434Z,12.64
2019-04-16T14:44:20.245Z,12.56
2019-04-16T14:46:50.426Z,12.55
2019-04-16T14:49:20.035Z,12.64
2019-04-16T14:51:52.229Z,12.55
2019-04-16T14:54:35.924Z,12.56
2019-04-16T14:57:10.231Z,12.42
2019-04-16T14:59:42.199Z,12.41
2019-04-16T15:02:29.120Z,12.47
2019-04-16T15:05:15.858Z,12.54
2019-04-16T15:07:52.177Z,12.49
2019-04-16T15:10:35.823Z,12.44
2019-04-16T15:13:16.062Z,12.40
2019-04-16T15:16:13.199Z,12.39
2019-04-16T15:19:03.958Z,12.39
2019-04-16T15:21:54.977Z,12.41
2019-04-16T15:24:31.888Z,12.47
2019-04-16T15:27:18.813Z,12.55
2019-04-16T15:29:57.658Z,12.56
2019-04-16T15:32:46.075Z,12.50
2019-04-16T15:35:20.687Z,12.55
2019-04-16T15:37:59.383Z,12.49
2019-04-16T15:40:39.307Z,12.50
2019-04-16T15:43:19.160Z,12.47
2019-04-16T15:46:25.211Z,12.47
2019-04-16T15:48:57.757Z,12.39
2019-04-16T15:51:50.628Z,12.36
2019-04-16T15:54:42.035Z,12.33
2019-04-16T15:57:42.370Z,12.33
2019-04-16T16:00:39.758Z,12.39
2019-04-16T16:03:26.207Z,12.43
2019-04-16T16:06:20.356Z,12.55
2019-04-16T16:08:52.609Z,12.56
2019-04-16T16:11:26.459Z,12.56
2019-04-16T16:13:59.224Z,12.50
2019-04-16T16:16:41.069Z,12.43
2019-04-16T16:18:58.042Z,12.38
2019-04-16T16:21:27.470Z,12.39
2019-04-16T16:23:57.523Z,12.41
2019-04-16T16:26:26.746Z,12.43
2019-04-16T16:28:56.670Z,12.44
2019-04-16T16:31:32.089Z,12.43
2019-04-16T16:33:56.504Z,12.39
2019-04-16T16:36:28.107Z,12.39
2019-04-16T16:38:58.799Z,12.37
2019-04-16T16:41:28.173Z,12.38
2019-04-16T16:44:00.098Z,12.39
2019-04-16T16:46:58.015Z,12.32
2019-04-16T16:49:27.304Z,12.28
2019-04-16T16:52:17.622Z,12.23
2019-04-16T16:54:47.393Z,12.20
2019-04-16T16:57:24.313Z,12.16
2019-04-16T17:00:20.755Z,12.12
2019-04-16T17:03:12.633Z,12.05
2019-04-16T17:05:42.175Z,11.96
2019-04-16T17:08:12.210Z,11.92
2019-04-16T17:10:42.648Z,11.93
2019-04-16T17:13:14.642Z,11.89
2019-04-16T17:15:43.466Z,11.88
2019-04-16T17:18:13.738Z,11.85
2019-04-16T17:20:42.860Z,11.79
2019-04-16T17:23:16.535Z,11.72
2019-04-16T17:25:45.076Z,11.63
2019-04-16T17:28:18.246Z,11.52
2019-04-16T17:30:48.356Z,11.44
2019-04-16T17:33:20.408Z,11.34
2019-04-16T17:35:50.212Z,11.24
2019-04-16T17:38:30.679Z,11.18
2019-04-16T17:41:02.617Z,11.11
2019-04-16T17:44:27.942Z,11.04
2019-04-16T17:47:36.503Z,10.98
2019-04-16T17:50:46.530Z,10.89
2019-04-16T17:53:25.549Z,10.79
2019-04-16T17:56:12.344Z,10.70
2019-04-16T17:59:06.348Z,10.63
2019-04-16T18:01:53.662Z,10.51
2019-04-16T18:04:31.167Z,10.39
2019-04-16T18:07:19.310Z,10.33
2019-04-16T18:10:17.073Z,10.25
2019-04-16T18:12:56.613Z,10.15
2019-04-16T18:15:54.662Z,10.06
2019-04-16T18:18:28.163Z,10.01
2019-04-16T18:21:19.633Z,9.94
2019-04-16T18:24:10.517Z,9.90
2019-04-16T18:27:14.034Z,9.81
2019-04-16T18:30:05.165Z,9.73
2019-04-16T18:32:55.234Z,9.66
2019-04-16T18:35:32.923Z,9.61
2019-04-16T18:38:27.313Z,9.52
2019-04-16T18:41:31.151Z,9.49
2019-04-16T18:44:19.871Z,9.40
2019-04-16T18:47:06.006Z,9.34
2019-04-16T18:49:35.644Z,9.27
2019-04-16T18:52:07.153Z,9.18
2019-04-16T18:54:36.405Z,9.14
2019-04-16T18:57:05.449Z,9.11
2019-04-16T18:59:35.345Z,9.05
2019-04-16T19:02:08.293Z,9.02
2019-04-16T19:04:37.569Z,8.97
2019-04-16T19:07:07.070Z,8.93
2019-04-16T19:09:36.937Z,8.91
2019-04-16T19:12:06.433Z,8.87
2019-04-16T19:14:36.714Z,8.82
2019-04-16T19:17:07.085Z,8.77
2019-04-16T19:19:37.199Z,8.75
2019-04-16T19:22:06.713Z,8.69
2019-04-16T19:24:36.475Z,8.65
2019-04-16T19:27:06.132Z,8.62
2019-04-16T19:29:35.358Z,8.57
2019-04-16T19:32:06.523Z,8.52
2019-04-16T19:34:40.976Z,8.48
2019-04-16T19:37:07.314Z,8.44
2019-04-16T19:39:39.485Z,8.38
2019-04-16T19:42:11.229Z,8.33
2019-04-16T19:44:40.607Z,8.29
2019-04-16T19:47:09.939Z,8.26
2019-04-16T19:49:39.062Z,8.21
2019-04-16T19:52:08.251Z,8.16
2019-04-16T19:54:37.391Z,8.13
2019-04-16T19:57:06.564Z,8.10
2019-04-16T19:59:35.847Z,8.05
2019-04-16T20:02:04.970Z,8.02
2019-04-16T20:04:34.994Z,8.02
2019-04-16T20:07:04.533Z,8.05
2019-04-16T20:09:34.262Z,8.05
2019-04-16T20:12:04.079Z,8.09
2019-04-16T20:14:36.276Z,8.13
2019-04-16T20:17:04.322Z,8.14
2019-04-16T20:19:35.550Z,8.15
2019-04-16T20:22:05.832Z,8.19
2019-04-16T20:24:34.734Z,8.22
2019-04-16T20:27:06.151Z,8.25
2019-04-16T20:29:35.735Z,8.26
2019-04-16T20:32:05.060Z,8.27
2019-04-16T20:34:34.779Z,8.25
2019-04-16T20:37:04.206Z,8.22
2019-04-16T20:39:33.471Z,8.20
2019-04-16T20:42:03.714Z,8.18
2019-04-16T20:44:32.833Z,8.15
2019-04-16T20:47:07.548Z,8.14
2019-04-16T20:49:32.834Z,8.15
2019-04-16T20:52:02.874Z,8.14
2019-04-16T20:54:31.949Z,8.16
2019-04-16T20:57:01.446Z,8.12
2019-04-16T20:59:30.825Z,8.09
2019-04-16T21:02:00.153Z,8.08
2019-04-16T21:04:29.416Z,8.05
2019-04-16T21:07:07.474Z,8.05
2019-04-16T21:09:39.466Z,8.01
2019-04-16T21:12:12.889Z,7.99
2019-04-16T21:14:40.556Z,7.97
2019-04-16T21:17:10.024Z,7.95
2019-04-16T21:20:01.823Z,7.92
2019-04-16T21:22:31.040Z,7.91
2019-04-16T21:25:00.535Z,7.90
2019-04-16T21:27:31.361Z,7.86
2019-04-16T21:30:03.865Z,7.82
2019-04-16T21:32:48.732Z,7.81
2019-04-16T21:35:21.493Z,7.80
2019-04-16T21:38:02.005Z,7.75
2019-04-16T21:40:31.262Z,7.73
2019-04-16T21:43:06.794Z,7.70
2019-04-16T21:45:31.768Z,7.72
2019-04-16T21:48:01.182Z,7.69
2019-04-16T21:50:30.541Z,7.66
2019-04-16T21:53:00.530Z,7.63
2019-04-16T21:55:29.803Z,7.60
2019-04-16T21:58:00.671Z,7.56
2019-04-16T22:00:59.804Z,7.51
2019-04-16T22:03:30.486Z,7.48
2019-04-16T22:05:59.936Z,7.44
2019-04-16T22:08:29.772Z,7.41
2019-04-16T22:11:00.681Z,7.36
2019-04-16T22:13:30.011Z,7.31
2019-04-16T22:15:59.121Z,7.29
2019-04-16T22:18:28.271Z,7.25
2019-04-16T22:20:57.748Z,7.22
2019-04-16T22:23:26.866Z,7.16
2019-04-16T22:25:57.164Z,7.14
2019-04-16T22:28:27.850Z,7.12
2019-04-16T22:30:57.059Z,7.11
2019-04-16T22:33:26.334Z,7.07
2019-04-16T22:35:55.471Z,7.07
2019-04-16T22:38:25.187Z,7.06
2019-04-16T22:41:13.282Z,7.01
2019-04-16T22:44:05.450Z,6.96
2019-04-16T22:46:40.474Z,6.93
2019-04-16T22:49:09.648Z,6.89
2019-04-16T22:51:39.754Z,6.84
2019-04-16T22:54:10.434Z,6.80
2019-04-16T22:56:52.285Z,6.75
2019-04-16T22:59:21.661Z,6.71
2019-04-16T23:01:53.226Z,6.64
2019-04-16T23:04:22.752Z,6.63
2019-04-16T23:06:52.662Z,6.60
2019-04-16T23:09:23.818Z,6.56
2019-04-16T23:11:55.891Z,6.51
2019-04-16T23:14:24.117Z,6.48
2019-04-16T23:16:53.333Z,6.45
2019-04-16T23:19:22.650Z,6.39
2019-04-16T23:21:52.090Z,6.34
2019-04-16T23:24:23.371Z,6.35
2019-04-16T23:26:52.769Z,6.35
2019-04-16T23:29:22.055Z,6.31
2019-04-16T23:31:55.247Z,6.24
2019-04-16T23:34:22.510Z,6.21
2019-04-16T23:36:51.799Z,6.21
2019-04-16T23:39:21.840Z,6.15
2019-04-16T23:41:50.898Z,6.14
2019-04-16T23:44:29.252Z,6.13
2019-04-16T23:47:21.356Z,6.13
2019-04-16T23:50:03.101Z,6.09
2019-04-16T23:52:37.902Z,6.06
2019-04-16T23:55:38.677Z,6.04
2019-04-16T23:58:15.357Z,5.99
